createdAt,value
2023-02-15T00:00:20.310Z,44.47
2023-02-15T00:02:47.174Z,46.33
2023-02-15T00:05:13.965Z,45.78
2023-02-15T00:07:40.679Z,45.60
2023-02-15T00:10:08.460Z,46.13
2023-02-15T00:12:35.154Z,45.67
2023-02-15T00:15:01.814Z,46.63
2023-02-15T00:17:29.831Z,47.08
2023-02-15T00:19:56.549Z,46.80
2023-02-15T00:22:23.213Z,48.25
2023-02-15T00:24:49.950Z,47.22
2023-02-15T00:27:16.633Z,48.53
2023-02-15T00:29:43.406Z,48.83
2023-02-15T00:32:10.405Z,48.58
2023-02-15T00:34:37.095Z,49.35
2023-02-15T00:37:03.734Z,49.28
2023-02-15T00:39:30.451Z,48.55
2023-02-15T00:41:57.128Z,50.40
2023-02-15T00:44:23.892Z,50.20
2023-02-15T00:46:50.654Z,51.00
2023-02-15T00:49:17.316Z,50.85
2023-02-15T00:51:44.028Z,50.38
2023-02-15T00:54:10.721Z,50.38
2023-02-15T00:56:37.403Z,50.72
2023-02-15T00:59:04.167Z,51.58
2023-02-15T01:01:31.024Z,50.30
2023-02-15T01:03:57.868Z,51.85
2023-02-15T01:06:24.585Z,52.10
2023-02-15T01:08:51.268Z,51.30
2023-02-15T01:11:21.962Z,52.45
2023-02-15T01:13:59.240Z,52.63
2023-02-15T01:16:28.375Z,54.05
2023-02-15T01:18:55.182Z,53.45
2023-02-15T01:21:24.259Z,54.50
2023-02-15T01:23:50.987Z,52.95
2023-02-15T01:26:18.007Z,52.97
2023-02-15T01:28:45.594Z,54.03
2023-02-15T01:31:15.028Z,53.33
2023-02-15T01:33:42.624Z,54.38
2023-02-15T01:36:09.543Z,53.15
2023-02-15T01:38:36.993Z,53.92
2023-02-15T01:41:03.778Z,53.03
2023-02-15T01:43:44.123Z,54.95
2023-02-15T01:46:13.798Z,55.20
2023-02-15T01:48:48.110Z,53.97
2023-02-15T01:51:21.569Z,54.65
2023-02-15T01:53:54.519Z,55.28
2023-02-15T01:56:25.956Z,53.95
2023-02-15T01:58:55.589Z,55.30
2023-02-15T02:01:23.282Z,55.83
2023-02-15T02:04:14.411Z,57.40
2023-02-15T02:06:41.273Z,58.25
2023-02-15T02:09:09.027Z,58.33
2023-02-15T02:11:36.145Z,58.72
2023-02-15T02:14:03.060Z,60.25
2023-02-15T02:16:34.019Z,59.03
2023-02-15T02:19:12.833Z,60.15
2023-02-15T02:22:00.715Z,62.10
2023-02-15T02:24:55.476Z,61.17
2023-02-15T02:28:06.511Z,60.08
2023-02-15T02:30:57.969Z,63.20
2023-02-15T02:33:30.860Z,62.20
2023-02-15T02:36:19.512Z,65.32
2023-02-15T02:38:46.137Z,64.30
2023-02-15T02:41:46.373Z,65.70
2023-02-15T02:44:18.339Z,67.38
2023-02-15T02:47:16.311Z,66.32
2023-02-15T02:49:44.490Z,66.35
2023-02-15T02:52:35.678Z,69.80
2023-02-15T02:55:06.863Z,71.28
2023-02-15T02:57:35.949Z,72.60
2023-02-15T03:00:06.452Z,74.90
2023-02-15T03:02:38.383Z,78.70
2023-02-15T03:05:09.739Z,81.07
2023-02-15T03:07:37.599Z,78.65
2023-02-15T03:10:06.945Z,80.15
2023-02-15T03:12:38.312Z,80.80
2023-02-15T03:15:10.179Z,77.78
2023-02-15T03:17:40.889Z,79.25
2023-02-15T03:20:37.321Z,77.93
2023-02-15T03:23:11.792Z,77.53
2023-02-15T03:25:42.579Z,78.32
2023-02-15T03:28:14.204Z,79.47
2023-02-15T03:30:45.962Z,76.25
2023-02-15T03:33:15.175Z,78.32
2023-02-15T03:35:55.627Z,79.75
2023-02-15T03:38:30.623Z,82.72
2023-02-15T03:41:00.396Z,81.30
2023-02-15T03:43:40.493Z,83.55
2023-02-15T03:46:16.352Z,81.97
2023-02-15T03:48:54.095Z,82.28
2023-02-15T03:51:29.036Z,83.30
2023-02-15T03:53:57.571Z,81.25
2023-02-15T03:56:24.869Z,81.18
2023-02-15T03:58:51.646Z,80.30
2023-02-15T04:01:31.352Z,77.55
2023-02-15T04:04:08.606Z,78.68
2023-02-15T04:06:35.291Z,78.18
2023-02-15T04:09:01.970Z,77.63
2023-02-15T04:11:28.640Z,76.43
2023-02-15T04:13:55.331Z,75.88
2023-02-15T04:16:22.060Z,77.30
2023-02-15T04:18:48.907Z,74.75
2023-02-15T04:21:15.790Z,75.60
2023-02-15T04:23:42.446Z,75.20
2023-02-15T04:26:09.098Z,74.13
2023-02-15T04:28:35.798Z,73.40
2023-02-15T04:31:02.502Z,75.00
2023-02-15T04:33:29.203Z,73.57
2023-02-15T04:35:55.887Z,73.15
2023-02-15T04:38:22.831Z,72.57
2023-02-15T04:40:53.247Z,71.35
2023-02-15T04:43:20.359Z,73.55
2023-02-15T04:45:50.911Z,71.35
2023-02-15T04:48:18.766Z,72.40
2023-02-15T04:50:45.926Z,72.43
2023-02-15T04:53:12.785Z,69.85
2023-02-15T04:55:39.513Z,69.70
2023-02-15T04:58:06.247Z,70.53
2023-02-15T05:00:32.962Z,71.72
2023-02-15T05:02:59.718Z,70.63
2023-02-15T05:05:26.595Z,70.47
2023-02-15T05:07:53.463Z,71.07
2023-02-15T05:10:20.404Z,72.20
2023-02-15T05:12:47.129Z,71.13
2023-02-15T05:15:13.905Z,71.20
2023-02-15T05:17:40.777Z,69.28
2023-02-15T05:20:07.948Z,73.22
2023-02-15T05:22:34.716Z,70.57
2023-02-15T05:25:01.421Z,72.95
2023-02-15T05:27:28.194Z,69.18
2023-02-15T05:29:54.896Z,71.30
2023-02-15T05:32:21.771Z,69.43
2023-02-15T05:34:48.513Z,70.43
2023-02-15T05:37:15.217Z,69.88
2023-02-15T05:39:41.884Z,70.90
2023-02-15T05:42:08.600Z,68.60
2023-02-15T05:44:35.278Z,71.15
2023-02-15T05:47:02.330Z,71.55
2023-02-15T05:49:29.146Z,69.88
2023-02-15T05:51:55.822Z,70.43
2023-02-15T05:54:22.480Z,71.70
2023-02-15T05:56:49.165Z,74.38
2023-02-15T05:59:15.862Z,76.72
2023-02-15T06:01:42.519Z,74.60
2023-02-15T06:04:09.241Z,77.18
2023-02-15T06:06:35.939Z,76.68
2023-02-15T06:09:02.889Z,76.72
2023-02-15T06:11:29.629Z,75.68
2023-02-15T06:13:56.321Z,74.30
2023-02-15T06:16:23.348Z,78.00
2023-02-15T06:18:51.347Z,80.90
2023-02-15T06:21:19.039Z,79.68
2023-02-15T06:23:45.756Z,77.63
2023-02-15T06:26:12.538Z,77.00
2023-02-15T06:28:39.218Z,76.25
2023-02-15T06:31:06.048Z,77.63
2023-02-15T06:33:32.761Z,77.93
2023-02-15T06:35:59.689Z,80.97
2023-02-15T06:38:26.524Z,79.75
2023-02-15T06:40:53.190Z,78.72
2023-02-15T06:43:19.860Z,79.45
2023-02-15T06:45:46.547Z,79.10
2023-02-15T06:48:13.300Z,81.43
2023-02-15T06:50:40.041Z,81.90
2023-02-15T06:53:06.905Z,78.47
2023-02-15T06:55:33.644Z,80.50
2023-02-15T06:58:00.351Z,81.60
2023-02-15T07:00:27.246Z,79.25
2023-02-15T07:02:59.067Z,80.50
2023-02-15T07:05:27.100Z,81.72
2023-02-15T07:07:54.036Z,80.25
2023-02-15T07:10:20.790Z,82.50
2023-02-15T07:12:47.646Z,80.50
2023-02-15T07:15:17.080Z,80.00
2023-02-15T07:17:45.022Z,78.82
2023-02-15T07:20:17.413Z,79.65
2023-02-15T07:22:44.541Z,81.78
2023-02-15T07:25:12.567Z,82.82
2023-02-15T07:27:40.211Z,80.90
2023-02-15T07:30:08.968Z,78.70
2023-02-15T07:32:35.852Z,78.05
2023-02-15T07:35:02.546Z,80.22
2023-02-15T07:37:29.593Z,78.75
2023-02-15T07:39:56.386Z,76.32
2023-02-15T07:42:23.209Z,75.97
2023-02-15T07:44:50.156Z,76.07
2023-02-15T07:47:16.969Z,80.70
2023-02-15T07:49:43.711Z,79.97
2023-02-15T07:52:10.415Z,74.10
2023-02-15T07:54:37.139Z,75.28
2023-02-15T07:57:03.963Z,76.68
2023-02-15T07:59:30.664Z,72.53
2023-02-15T08:01:57.610Z,72.05
2023-02-15T08:04:24.900Z,72.70
2023-02-15T08:06:54.275Z,73.55
2023-02-15T08:09:21.583Z,73.15
2023-02-15T08:11:48.742Z,71.28
2023-02-15T08:14:24.519Z,72.60
2023-02-15T08:16:53.184Z,73.75
2023-02-15T08:19:21.138Z,73.78
2023-02-15T08:21:50.319Z,73.97
2023-02-15T08:24:19.691Z,73.72
2023-02-15T08:26:46.774Z,71.68
2023-02-15T08:29:19.355Z,73.22
2023-02-15T08:31:46.907Z,76.90
2023-02-15T08:34:16.888Z,73.72
2023-02-15T08:36:44.296Z,71.45
2023-02-15T08:39:11.361Z,71.63
2023-02-15T08:41:39.334Z,72.40
2023-02-15T08:44:08.365Z,72.82
2023-02-15T08:46:37.636Z,76.13
2023-02-15T08:49:04.836Z,70.80
2023-02-15T08:51:34.771Z,70.53
2023-02-15T08:54:04.043Z,73.95
2023-02-15T08:56:34.817Z,68.65
2023-02-15T08:59:02.650Z,70.78
2023-02-15T09:01:32.070Z,70.95
2023-02-15T09:04:07.095Z,69.05
2023-02-15T09:06:34.117Z,67.07
2023-02-15T09:09:00.810Z,66.22
2023-02-15T09:11:29.791Z,66.63
2023-02-15T09:14:08.400Z,64.72
2023-02-15T09:16:37.373Z,64.20
2023-02-15T09:19:06.164Z,63.95
2023-02-15T09:21:37.711Z,62.85
2023-02-15T09:24:07.633Z,64.85
2023-02-15T09:26:37.473Z,65.15
2023-02-15T09:29:04.946Z,66.65
2023-02-15T09:31:35.161Z,67.40
2023-02-15T09:34:02.102Z,64.80
2023-02-15T09:36:35.166Z,58.42
2023-02-15T09:39:13.162Z,61.85
2023-02-15T09:42:17.487Z,61.20
2023-02-15T09:45:03.026Z,60.80
2023-02-15T09:47:32.522Z,60.17
2023-02-15T09:50:36.380Z,61.95
2023-02-15T09:53:30.495Z,58.92
2023-02-15T09:56:21.139Z,55.83
2023-02-15T09:59:37.238Z,55.10
2023-02-15T10:02:16.942Z,54.28
2023-02-15T10:05:14.803Z,53.22
2023-02-15T10:07:57.309Z,52.78
2023-02-15T10:10:50.290Z,53.53
2023-02-15T10:13:44.699Z,53.92
2023-02-15T10:16:40.685Z,52.63
2023-02-15T10:19:12.952Z,51.55
2023-02-15T10:21:51.926Z,53.17
2023-02-15T10:24:55.414Z,51.53
2023-02-15T10:27:22.621Z,51.35
2023-02-15T10:29:59.957Z,51.20
2023-02-15T10:32:28.518Z,52.95
2023-02-15T10:35:35.716Z,50.35
2023-02-15T10:38:02.331Z,50.75
2023-02-15T10:40:43.923Z,51.55
2023-02-15T10:43:44.476Z,52.80
2023-02-15T10:46:33.369Z,51.53
2023-02-15T10:49:23.159Z,54.90
2023-02-15T10:52:27.354Z,52.45
2023-02-15T10:55:21.782Z,54.92
2023-02-15T10:58:22.595Z,51.08
2023-02-15T11:01:21.568Z,52.63
2023-02-15T11:03:57.221Z,51.85
2023-02-15T11:09:02.217Z,52.55
2023-02-15T11:11:35.778Z,53.83
2023-02-15T11:14:11.059Z,52.70
2023-02-15T11:16:40.901Z,52.42
2023-02-15T11:19:15.077Z,52.10
2023-02-15T11:21:46.581Z,53.80
2023-02-15T11:24:16.702Z,52.25
2023-02-15T11:27:01.046Z,50.38
2023-02-15T11:29:30.751Z,51.00
2023-02-15T11:32:29.394Z,50.50
2023-02-15T11:35:10.921Z,47.42
2023-02-15T11:38:21.128Z,49.88
2023-02-15T11:40:56.925Z,49.05
2023-02-15T11:43:47.346Z,47.22
2023-02-15T11:46:14.192Z,46.47
2023-02-15T11:48:41.452Z,45.28
2023-02-15T11:51:13.262Z,46.50
2023-02-15T11:53:40.686Z,45.00
2023-02-15T11:56:15.270Z,44.53
2023-02-15T11:58:48.896Z,44.40
2023-02-15T12:01:32.981Z,43.28
2023-02-15T12:04:46.448Z,43.75
2023-02-15T12:07:33.144Z,38.63
2023-02-15T12:10:20.095Z,39.50
2023-02-15T12:12:46.958Z,38.45
2023-02-15T12:15:14.853Z,38.28
2023-02-15T12:17:49.991Z,38.55
2023-02-15T12:20:16.657Z,39.17
2023-02-15T12:22:59.444Z,36.97
2023-02-15T12:25:43.150Z,38.47
2023-02-15T12:28:27.915Z,37.00
2023-02-15T12:30:56.298Z,38.35
2023-02-15T12:33:35.140Z,37.70
2023-02-15T12:36:10.346Z,38.63
2023-02-15T12:38:37.140Z,36.17
2023-02-15T12:41:06.827Z,36.53
2023-02-15T12:43:38.321Z,36.92
2023-02-15T12:46:28.166Z,36.97
2023-02-15T12:49:08.707Z,35.90
2023-02-15T12:51:59.914Z,36.03
2023-02-15T12:54:31.140Z,34.53
2023-02-15T12:56:58.902Z,34.60
2023-02-15T12:59:26.342Z,34.03
2023-02-15T13:01:54.109Z,34.20
2023-02-15T13:04:30.037Z,33.50
2023-02-15T13:07:00.543Z,34.25
2023-02-15T13:09:33.545Z,35.25
2023-02-15T13:12:28.421Z,36.35
2023-02-15T13:14:56.681Z,35.80
2023-02-15T13:17:34.486Z,35.28
2023-02-15T13:20:28.689Z,32.03
2023-02-15T13:23:00.574Z,34.58
2023-02-15T13:25:31.950Z,33.55
2023-02-15T13:28:03.337Z,34.78
2023-02-15T13:30:42.989Z,34.00
2023-02-15T13:33:20.626Z,35.20
2023-02-15T13:35:58.852Z,34.17
2023-02-15T13:38:34.680Z,30.60
2023-02-15T13:41:10.351Z,31.50
2023-02-15T13:44:00.432Z,30.85
2023-02-15T13:46:32.966Z,29.98
2023-02-15T13:49:29.251Z,31.42
2023-02-15T13:52:23.934Z,31.67
2023-02-15T13:55:32.000Z,32.20
2023-02-15T13:58:15.352Z,30.95
2023-02-15T14:01:19.938Z,30.20
2023-02-15T14:03:52.867Z,30.20
2023-02-15T14:06:49.136Z,28.95
2023-02-15T14:09:38.414Z,30.98
2023-02-15T14:12:32.764Z,31.60
2023-02-15T14:15:11.731Z,31.88
2023-02-15T14:17:56.214Z,31.50
2023-02-15T14:20:44.809Z,30.35
2023-02-15T14:23:25.972Z,31.80
2023-02-15T14:26:00.388Z,31.70
2023-02-15T14:28:52.161Z,31.88
2023-02-15T14:31:22.197Z,31.10
2023-02-15T14:33:55.918Z,31.80
2023-02-15T14:36:25.610Z,31.73
2023-02-15T14:39:09.269Z,32.08
2023-02-15T14:41:48.809Z,32.60
2023-02-15T14:44:56.773Z,32.10
2023-02-15T14:47:29.990Z,31.75
2023-02-15T14:49:57.047Z,30.40
2023-02-15T14:52:23.898Z,31.90
2023-02-15T14:54:50.635Z,29.35
2023-02-15T14:57:17.288Z,31.27
2023-02-15T14:59:57.232Z,31.80
2023-02-15T15:02:50.577Z,30.83
2023-02-15T15:05:33.274Z,30.98
2023-02-15T15:08:02.222Z,30.75
2023-02-15T15:10:38.959Z,29.88
2023-02-15T15:13:32.884Z,30.17
2023-02-15T15:16:28.576Z,30.48
2023-02-15T15:18:56.040Z,30.55
2023-02-15T15:21:47.157Z,29.23
2023-02-15T15:24:41.392Z,29.85
2023-02-15T15:27:43.181Z,30.65
2023-02-15T15:30:16.137Z,28.48
2023-02-15T15:33:12.467Z,29.45
2023-02-15T15:35:59.805Z,29.02
2023-02-15T15:39:03.716Z,29.65
2023-02-15T15:41:49.522Z,29.23
2023-02-15T15:44:46.741Z,29.50
2023-02-15T15:48:01.946Z,29.95
2023-02-15T15:50:33.679Z,30.35
2023-02-15T15:53:02.795Z,30.75
2023-02-15T15:55:33.061Z,28.45
2023-02-15T15:58:06.803Z,30.10
2023-02-15T16:00:50.995Z,31.58
2023-02-15T16:03:23.997Z,32.00
2023-02-15T16:05:51.564Z,34.05
2023-02-15T16:08:37.006Z,33.42
2023-02-15T16:11:24.884Z,35.22
2023-02-15T16:13:52.743Z,33.13
2023-02-15T16:16:25.371Z,33.08
2023-02-15T16:18:53.025Z,34.60
2023-02-15T16:21:24.247Z,34.17
2023-02-15T16:23:54.456Z,34.08
2023-02-15T16:26:42.407Z,33.13
2023-02-15T16:29:27.127Z,32.78
2023-02-15T16:32:05.475Z,33.60
2023-02-15T16:34:32.502Z,36.65
2023-02-15T16:37:16.146Z,35.92
2023-02-15T16:39:45.063Z,36.10
2023-02-15T16:42:14.393Z,36.38
2023-02-15T16:44:41.651Z,35.28
2023-02-15T16:47:26.249Z,33.22
2023-02-15T16:49:55.052Z,33.80
2023-02-15T16:52:25.510Z,33.83
2023-02-15T16:54:57.141Z,34.72
2023-02-15T16:57:28.012Z,34.60
2023-02-15T16:59:58.336Z,32.83
2023-02-15T17:02:49.722Z,35.10
2023-02-15T17:05:18.400Z,34.95
2023-02-15T17:08:03.326Z,39.20
2023-02-15T17:10:32.013Z,41.90
2023-02-15T17:13:04.400Z,40.90
2023-02-15T17:15:32.785Z,40.58
2023-02-15T17:18:20.265Z,33.50
2023-02-15T17:20:49.271Z,32.05
2023-02-15T17:23:34.263Z,28.90
2023-02-15T17:26:11.383Z,30.85
2023-02-15T17:28:38.305Z,31.70
2023-02-15T17:31:08.298Z,36.88
2023-02-15T17:33:35.180Z,37.75
2023-02-15T17:36:16.886Z,39.72
2023-02-15T17:38:58.843Z,40.33
2023-02-15T17:41:26.302Z,39.58
2023-02-15T17:43:52.957Z,40.50
2023-02-15T17:46:20.340Z,41.10
2023-02-15T17:48:48.694Z,40.88
2023-02-15T17:51:16.750Z,39.83
2023-02-15T17:53:44.209Z,40.75
2023-02-15T17:56:10.927Z,39.75
2023-02-15T17:58:39.371Z,43.05
2023-02-15T18:01:17.708Z,43.70
2023-02-15T18:03:50.652Z,42.78
2023-02-15T18:06:17.388Z,41.20
2023-02-15T18:08:44.499Z,43.22
2023-02-15T18:11:11.509Z,45.45
2023-02-15T18:13:38.263Z,43.03
2023-02-15T18:16:05.085Z,45.13
2023-02-15T18:18:31.801Z,44.78
2023-02-15T18:20:58.484Z,42.17
2023-02-15T18:23:25.140Z,40.60
2023-02-15T18:25:51.791Z,43.05
2023-02-15T18:28:18.435Z,41.22
2023-02-15T18:30:45.196Z,40.15
2023-02-15T18:33:45.424Z,38.42
2023-02-15T18:36:18.326Z,42.28
2023-02-15T18:38:45.019Z,41.20
2023-02-15T18:41:18.158Z,47.78
2023-02-15T18:43:45.692Z,48.17
2023-02-15T18:46:12.728Z,39.63
2023-02-15T18:48:39.436Z,36.60
2023-02-15T18:51:14.182Z,38.03
2023-02-15T18:53:41.122Z,36.63
2023-02-15T18:56:16.169Z,36.17
2023-02-15T18:58:42.999Z,40.75
2023-02-15T19:01:18.011Z,42.92
2023-02-15T19:03:49.504Z,45.35
2023-02-15T19:06:20.104Z,46.63
2023-02-15T19:08:49.040Z,45.47
2023-02-15T19:11:24.072Z,46.63
2023-02-15T19:13:54.288Z,46.92
2023-02-15T19:16:31.346Z,48.38
2023-02-15T19:18:58.162Z,54.83
2023-02-15T19:21:26.874Z,52.20
2023-02-15T19:24:06.996Z,51.55
2023-02-15T19:26:45.262Z,48.90
2023-02-15T19:29:15.798Z,47.42
2023-02-15T19:31:43.222Z,46.67
2023-02-15T19:34:15.252Z,44.53
2023-02-15T19:36:43.875Z,46.33
2023-02-15T19:39:21.458Z,48.25
2023-02-15T19:41:48.226Z,46.25
2023-02-15T19:44:14.923Z,45.60
2023-02-15T19:46:41.671Z,47.30
2023-02-15T19:49:09.763Z,48.58
2023-02-15T19:51:37.001Z,52.20
2023-02-15T19:54:19.690Z,54.72
2023-02-15T19:56:46.389Z,59.40
2023-02-15T19:59:27.030Z,60.95
2023-02-15T20:01:54.377Z,55.40
2023-02-15T20:04:21.219Z,50.05
2023-02-15T20:06:50.248Z,51.22
2023-02-15T20:09:30.733Z,49.38
2023-02-15T20:11:57.454Z,48.28
2023-02-15T20:14:24.330Z,48.78
2023-02-15T20:16:51.222Z,48.53
2023-02-15T20:19:18.017Z,48.03
2023-02-15T20:21:46.518Z,45.97
2023-02-15T20:24:19.864Z,47.70
2023-02-15T20:26:46.738Z,45.85
2023-02-15T20:29:14.801Z,47.60
2023-02-15T20:31:42.786Z,45.70
2023-02-15T20:34:09.839Z,47.38
2023-02-15T20:36:37.410Z,46.78
2023-02-15T20:39:12.164Z,47.38
2023-02-15T20:41:38.837Z,45.67
2023-02-15T20:44:30.852Z,47.17
2023-02-15T20:46:58.994Z,43.67
2023-02-15T20:49:27.287Z,42.97
2023-02-15T20:51:55.989Z,43.40
2023-02-15T20:54:30.533Z,44.72
2023-02-15T20:56:57.248Z,42.40
2023-02-15T20:59:29.036Z,43.78
2023-02-15T21:01:59.457Z,44.60
2023-02-15T21:04:30.479Z,43.92
2023-02-15T21:06:57.353Z,44.92
2023-02-15T21:09:24.025Z,43.60
2023-02-15T21:11:52.900Z,42.90
2023-02-15T21:14:21.750Z,43.28
2023-02-15T21:16:49.532Z,44.15
2023-02-15T21:19:20.138Z,44.47
2023-02-15T21:21:48.372Z,43.42
2023-02-15T21:24:25.517Z,43.00
2023-02-15T21:26:52.828Z,42.35
2023-02-15T21:29:24.846Z,42.42
2023-02-15T21:31:52.362Z,43.65
2023-02-15T21:34:19.550Z,41.88
2023-02-15T21:36:48.384Z,43.47
2023-02-15T21:39:23.656Z,41.35
2023-02-15T21:41:52.327Z,42.13
2023-02-15T21:44:21.928Z,40.63
2023-02-15T21:46:48.735Z,41.35
2023-02-15T21:49:15.448Z,44.85
2023-02-15T21:51:42.200Z,44.70
2023-02-15T21:54:12.521Z,45.60
2023-02-15T21:56:39.591Z,45.50
2023-02-15T21:59:14.189Z,44.33
2023-02-15T22:01:44.551Z,46.83
2023-02-15T22:04:22.453Z,43.65
2023-02-15T22:06:49.234Z,40.13
2023-02-15T22:09:25.018Z,42.47
2023-02-15T22:11:52.525Z,43.05
2023-02-15T22:14:41.503Z,40.28
2023-02-15T22:17:23.167Z,41.25
2023-02-15T22:19:50.504Z,41.28
2023-02-15T22:22:17.681Z,39.85
2023-02-15T22:24:45.242Z,41.53
2023-02-15T22:27:22.084Z,38.97
2023-02-15T22:29:49.948Z,40.03
2023-02-15T22:32:24.397Z,41.10
2023-02-15T22:34:52.956Z,42.00
2023-02-15T22:37:20.631Z,42.65
2023-02-15T22:39:47.359Z,40.00
2023-02-15T22:42:24.353Z,40.47
2023-02-15T22:44:56.782Z,39.15
2023-02-15T22:47:26.537Z,40.75
2023-02-15T22:49:53.340Z,39.75
2023-02-15T22:52:20.971Z,39.55
2023-02-15T22:54:47.687Z,40.25
2023-02-15T22:57:29.167Z,40.63
2023-02-15T22:59:56.534Z,38.55
2023-02-15T23:02:23.481Z,39.58
2023-02-15T23:04:53.175Z,38.97
2023-02-15T23:07:20.148Z,36.72
2023-02-15T23:09:46.810Z,38.20
2023-02-15T23:12:28.493Z,37.72
2023-02-15T23:14:56.797Z,38.90
2023-02-15T23:17:23.470Z,39.92
2023-02-15T23:19:50.152Z,38.80
2023-02-15T23:22:18.163Z,38.47
2023-02-15T23:24:50.053Z,36.72
2023-02-15T23:27:18.121Z,35.47
2023-02-15T23:29:45.133Z,34.97
2023-02-15T23:32:15.612Z,32.67
2023-02-15T23:34:43.362Z,33.25
2023-02-15T23:37:14.305Z,32.33
2023-02-15T23:39:41.070Z,30.77
2023-02-15T23:42:14.686Z,30.23
2023-02-15T23:44:43.556Z,30.30
2023-02-15T23:47:32.333Z,31.45
2023-02-15T23:49:58.989Z,30.38
2023-02-15T23:52:25.692Z,31.58
2023-02-15T23:54:52.394Z,32.30
2023-02-15T23:57:19.079Z,31.42
2023-02-15T23:59:45.763Z,30.63
